Time;durP1;ratioP1;P1;durP2;ratioP2;P2;SDS_P1;SDS_P2;PMS_P1;PMS_P2;Temp;Humidity;BMP_temperature;BMP_pressure;BME280_temperature;BME280_humidity;BME280_pressure;Samples;Min_cycle;Max_cycle;Signal;HPM_P1;HPM_P2
2022/11/09 00:00:20;;;;;;;0.40;0.40;;;19.30;97.90;;;;;;5114906;28;20718;-74
2022/11/09 00:03:08;;;;;;;2.95;2.85;;;19.30;97.90;;;;;;5115290;28;20207;-74
2022/11/09 00:05:58;;;;;;;0.40;0.40;;;19.30;97.70;;;;;;5114038;28;20227;-73
2022/11/09 00:08:47;;;;;;;0.40;0.40;;;19.30;97.70;;;;;;5115347;28;20282;-74
2022/11/09 00:11:37;;;;;;;0.40;0.40;;;19.30;97.80;;;;;;5115626;28;20282;-74
2022/11/09 00:14:25;;;;;;;0.40;0.40;;;19.20;97.80;;;;;;5115193;28;20201;-73
2022/11/09 00:17:13;;;;;;;0.40;0.40;;;19.30;97.80;;;;;;5114034;28;20314;-73
2022/11/09 00:20:01;;;;;;;0.40;0.40;;;19.30;97.80;;;;;;5114757;28;20203;-75
2022/11/09 00:22:49;;;;;;;0.40;0.40;;;19.20;97.90;;;;;;5114666;28;20305;-74
2022/11/09 00:25:39;;;;;;;0.40;0.40;;;19.20;98.00;;;;;;5114771;28;20222;-73
2022/11/09 00:28:27;;;;;;;0.40;0.40;;;19.20;97.90;;;;;;5115030;28;20746;-75
2022/11/09 00:31:17;;;;;;;0.40;0.40;;;19.20;98.00;;;;;;5115371;28;20282;-74
2022/11/09 00:34:05;;;;;;;0.40;0.40;;;19.20;97.90;;;;;;5115413;28;20284;-75
2022/11/09 00:36:54;;;;;;;0.40;0.40;;;19.20;97.90;;;;;;5114997;28;20286;-74
2022/11/09 00:39:42;;;;;;;0.40;0.40;;;19.20;97.90;;;;;;5113653;28;20699;-75
2022/11/09 00:42:32;;;;;;;0.40;0.40;;;19.20;97.90;;;;;;5114116;28;20637;-74
2022/11/09 00:45:20;;;;;;;1.38;1.33;;;19.20;97.70;;;;;;5115302;27;20265;-73
2022/11/09 00:48:09;;;;;;;0.40;0.40;;;19.20;98.20;;;;;;5114258;28;20655;-74
2022/11/09 00:50:58;;;;;;;0.40;0.40;;;19.20;97.90;;;;;;5114762;28;20570;-75
2022/11/09 00:53:47;;;;;;;0.40;0.40;;;19.20;97.90;;;;;;5115682;27;20198;-74
2022/11/09 00:56:35;;;;;;;0.40;0.40;;;19.20;97.90;;;;;;5111217;28;20207;-75
2022/11/09 00:59:24;;;;;;;0.40;0.40;;;19.20;97.90;;;;;;5086065;28;20204;-74
2022/11/09 01:02:12;;;;;;;0.40;0.40;;;19.20;97.90;;;;;;5093927;28;20206;-73
2022/11/09 01:05:00;;;;;;;0.40;0.40;;;19.20;98.00;;;;;;5093014;28;20255;-74
2022/11/09 01:07:48;;;;;;;0.40;0.40;;;19.20;98.00;;;;;;5093699;28;20357;-75
2022/11/09 01:10:40;;;;;;;0.40;0.40;;;19.10;98.00;;;;;;5092896;28;20279;-73
2022/11/09 01:13:28;;;;;;;0.40;0.40;;;19.20;98.00;;;;;;5093701;28;20222;-74
2022/11/09 01:16:20;;;;;;;0.50;0.50;;;19.20;98.00;;;;;;5092110;28;20240;-73
2022/11/09 01:19:08;;;;;;;0.40;0.40;;;19.20;98.00;;;;;;5092702;28;20676;-73
2022/11/09 01:21:56;;;;;;;0.40;0.40;;;19.20;98.00;;;;;;5093103;28;20208;-74
2022/11/09 01:24:44;;;;;;;0.40;0.40;;;19.20;98.00;;;;;;5092576;28;20279;-73
2022/11/09 01:27:33;;;;;;;0.40;0.40;;;19.20;98.00;;;;;;5092813;28;20299;-73
2022/11/09 01:30:21;;;;;;;0.40;0.40;;;19.10;98.10;;;;;;5092333;28;20253;-73
2022/11/09 01:33:12;;;;;;;0.40;0.40;;;19.10;98.10;;;;;;5093299;28;20289;-72
2022/11/09 01:36:02;;;;;;;0.40;0.40;;;19.10;98.00;;;;;;5092886;28;20203;-74
2022/11/09 01:38:50;;;;;;;0.40;0.40;;;19.20;98.00;;;;;;5092578;28;20611;-72
2022/11/09 01:41:38;;;;;;;0.40;0.40;;;19.10;97.90;;;;;;5093744;28;20713;-74
2022/11/09 01:44:27;;;;;;;0.40;0.40;;;19.10;97.90;;;;;;5093313;28;20691;-73
2022/11/09 01:47:25;;;;;;;0.40;0.40;;;19.10;98.00;;;;;;5092390;28;20303;-73
2022/11/09 01:50:17;;;;;;;0.40;0.40;;;19.10;98.00;;;;;;5092791;28;20685;-73
2022/11/09 01:53:09;;;;;;;0.40;0.40;;;19.10;98.10;;;;;;5093333;28;20203;-73
2022/11/09 01:56:02;;;;;;;0.40;0.40;;;19.10;97.80;;;;;;5092272;28;20400;-73
2022/11/09 01:58:57;;;;;;;0.40;0.40;;;19.00;98.00;;;;;;5073145;28;20208;-74
2022/11/09 02:01:46;;;;;;;0.40;0.40;;;19.00;98.00;;;;;;5073210;28;20670;-75
2022/11/09 02:04:39;;;;;;;0.40;0.40;;;19.00;98.10;;;;;;5072294;28;20298;-72
2022/11/09 02:07:29;;;;;;;0.40;0.40;;;19.10;98.10;;;;;;5071802;28;20227;-73
2022/11/09 02:10:24;;;;;;;0.40;0.40;;;19.00;98.10;;;;;;5072806;28;20676;-74
2022/11/09 02:13:16;;;;;;;0.40;0.40;;;19.00;98.10;;;;;;5072299;28;20556;-74
2022/11/09 02:16:05;;;;;;;0.40;0.40;;;19.00;97.90;;;;;;5072650;28;20196;-73
2022/11/09 02:18:55;;;;;;;0.40;0.40;;;19.00;98.10;;;;;;5073260;28;20253;-73
2022/11/09 02:21:45;;;;;;;0.40;0.40;;;19.00;98.00;;;;;;5072660;28;20249;-72
2022/11/09 02:24:34;;;;;;;0.40;0.40;;;19.00;98.10;;;;;;5072665;28;20200;-73
2022/11/09 02:27:22;;;;;;;0.40;0.40;;;19.00;98.00;;;;;;5072876;28;20264;-75
2022/11/09 02:30:11;;;;;;;0.40;0.40;;;18.90;98.10;;;;;;5076468;28;20232;-73
2022/11/09 02:32:59;;;;;;;0.40;0.40;;;19.00;98.20;;;;;;5076289;28;20266;-73
2022/11/09 02:35:48;;;;;;;0.40;0.40;;;18.90;98.10;;;;;;5076682;28;20236;-73
2022/11/09 02:38:37;;;;;;;0.40;0.40;;;18.90;98.10;;;;;;5076656;28;20196;-76
2022/11/09 02:41:27;;;;;;;0.40;0.40;;;18.90;98.00;;;;;;5075647;28;20233;-73
2022/11/09 02:44:16;;;;;;;0.40;0.40;;;18.90;98.10;;;;;;5076847;28;20201;-73
2022/11/09 02:47:04;;;;;;;0.40;0.40;;;18.90;98.10;;;;;;5095134;28;20220;-74
2022/11/09 02:49:52;;;;;;;0.40;0.40;;;18.90;98.20;;;;;;5097134;28;20852;-73
2022/11/09 02:52:40;;;;;;;0.40;0.40;;;18.90;98.00;;;;;;5096139;28;20196;-75
2022/11/09 02:55:30;;;;;;;0.40;0.40;;;18.90;98.20;;;;;;5096242;28;20210;-74
2022/11/09 02:58:18;;;;;;;0.40;0.40;;;18.90;98.30;;;;;;5095297;28;20222;-74
2022/11/09 03:01:06;;;;;;;0.40;0.40;;;18.90;98.20;;;;;;5097605;28;20202;-73
2022/11/09 03:03:55;;;;;;;0.40;0.40;;;18.90;98.20;;;;;;5096949;28;20283;-74
2022/11/09 03:06:43;;;;;;;0.40;0.40;;;18.80;98.10;;;;;;5096119;28;20822;-74
2022/11/09 03:09:31;;;;;;;0.40;0.40;;;18.90;98.20;;;;;;5096744;28;20210;-76
2022/11/09 03:12:29;;;;;;;0.40;0.40;;;18.80;98.00;;;;;;5096726;28;20872;-73
2022/11/09 03:15:17;;;;;;;0.40;0.40;;;18.80;98.10;;;;;;5095572;28;20200;-74
2022/11/09 03:18:05;;;;;;;0.40;0.40;;;18.80;98.00;;;;;;5095007;28;20578;-73
2022/11/09 03:20:54;;;;;;;0.40;0.40;;;18.80;98.10;;;;;;5095269;28;20275;-73
2022/11/09 03:23:42;;;;;;;0.40;0.40;;;18.80;98.10;;;;;;5096812;28;20200;-75
2022/11/09 03:26:30;;;;;;;0.40;0.40;;;18.80;98.30;;;;;;5095620;28;20250;-73
2022/11/09 03:29:19;;;;;;;0.40;0.40;;;18.80;98.20;;;;;;5096037;28;20204;-73
2022/11/09 03:32:07;;;;;;;0.40;0.40;;;18.80;98.30;;;;;;5095107;28;20357;-73
2022/11/09 03:34:55;;;;;;;0.40;0.40;;;18.80;98.30;;;;;;5094644;28;20204;-74
2022/11/09 03:37:44;;;;;;;0.40;0.40;;;18.80;98.00;;;;;;5095407;28;20635;-73
2022/11/09 03:40:32;;;;;;;0.40;0.40;;;18.80;98.30;;;;;;5095435;28;20196;-73
2022/11/09 03:43:20;;;;;;;0.40;0.40;;;18.80;98.20;;;;;;5096112;28;20245;-73
2022/11/09 03:46:10;;;;;;;0.40;0.40;;;18.80;99.90;;;;;;5095849;28;20199;-74
2022/11/09 03:48:58;;;;;;;0.40;0.40;;;18.80;98.30;;;;;;5094355;28;20199;-74
2022/11/09 03:51:46;;;;;;;0.40;0.40;;;18.80;98.20;;;;;;5094980;28;20200;-74
2022/11/09 03:54:34;;;;;;;0.40;0.40;;;18.80;98.30;;;;;;5095574;28;20309;-73
2022/11/09 03:57:22;;;;;;;0.40;0.40;;;18.70;98.20;;;;;;5096005;28;20299;-73
2022/11/09 04:00:13;;;;;;;0.40;0.40;;;18.70;98.10;;;;;;5095291;28;20283;-74
2022/11/09 04:03:03;;;;;;;0.40;0.40;;;18.80;98.30;;;;;;5094425;28;20228;-73
2022/11/09 04:05:51;;;;;;;0.40;0.40;;;18.80;98.30;;;;;;5094916;28;20282;-73
2022/11/09 04:08:39;;;;;;;0.40;0.40;;;18.80;98.30;;;;;;5095232;28;20204;-74
2022/11/09 04:11:27;;;;;;;0.40;0.40;;;18.70;98.30;;;;;;5094869;28;20782;-73
2022/11/09 04:14:15;;;;;;;0.40;0.40;;;18.80;98.30;;;;;;5093652;28;20237;-73
2022/11/09 04:17:03;;;;;;;0.40;0.40;;;18.80;98.00;;;;;;5112202;22;20229;-66
2022/11/09 04:19:52;;;;;;;0.40;0.40;;;18.80;98.20;;;;;;5073850;28;20802;-65
2022/11/09 04:22:40;;;;;;;0.40;0.40;;;18.80;98.30;;;;;;5073777;28;20196;-65
2022/11/09 04:25:32;;;;;;;0.40;0.40;;;18.70;98.30;;;;;;5073155;28;20262;-65
2022/11/09 04:28:20;;;;;;;0.40;0.40;;;18.80;98.40;;;;;;5073809;28;20229;-65
2022/11/09 04:31:08;;;;;;;0.40;0.40;;;18.70;98.60;;;;;;5074076;28;20286;-67
2022/11/09 04:33:56;;;;;;;0.40;0.40;;;18.70;98.30;;;;;;5074213;28;20617;-65
2022/11/09 04:36:45;;;;;;;0.60;0.60;;;18.80;98.40;;;;;;5073226;28;20383;-65
2022/11/09 04:39:33;;;;;;;0.40;0.40;;;18.70;98.30;;;;;;5074092;28;20279;-65
2022/11/09 04:42:21;;;;;;;0.40;0.40;;;18.70;98.40;;;;;;5074216;28;20193;-65
2022/11/09 04:45:10;;;;;;;0.40;0.40;;;18.70;98.40;;;;;;5077337;28;20270;-66
2022/11/09 04:47:58;;;;;;;0.40;0.40;;;18.80;98.40;;;;;;5092740;28;20311;-65
2022/11/09 04:50:46;;;;;;;0.40;0.40;;;18.90;98.50;;;;;;5092211;28;20204;-65
2022/11/09 04:53:37;;;;;;;0.40;0.40;;;18.70;98.40;;;;;;5088939;28;20201;-65
2022/11/09 04:56:25;;;;;;;0.40;0.40;;;18.70;98.10;;;;;;5094903;28;20275;-65
2022/11/09 04:59:13;;;;;;;0.40;0.40;;;18.70;98.40;;;;;;5093619;28;20196;-65
2022/11/09 05:02:01;;;;;;;0.40;0.40;;;18.80;98.40;;;;;;5092233;28;20278;-64
2022/11/09 05:04:49;;;;;;;0.40;0.40;;;18.80;98.40;;;;;;5094084;28;20192;-65
2022/11/09 05:07:37;;;;;;;0.40;0.40;;;18.70;98.30;;;;;;5092623;28;20256;-65
2022/11/09 05:10:27;;;;;;;0.40;0.40;;;18.80;98.40;;;;;;5093181;28;20638;-65
2022/11/09 05:13:15;;;;;;;0.40;0.40;;;18.70;98.40;;;;;;5093094;28;20203;-65
2022/11/09 05:16:03;;;;;;;0.40;0.40;;;18.70;98.40;;;;;;5092939;28;20583;-65
2022/11/09 05:18:51;;;;;;;0.40;0.40;;;18.80;98.50;;;;;;5092043;28;20627;-66
2022/11/09 05:21:39;;;;;;;0.40;0.40;;;18.70;98.50;;;;;;5092376;28;20329;-66
2022/11/09 05:24:26;;;;;;;0.40;0.40;;;18.70;98.50;;;;;;5094066;28;20691;-66
2022/11/09 05:27:16;;;;;;;0.40;0.40;;;18.70;98.50;;;;;;5093315;28;20306;-66
2022/11/09 05:30:05;;;;;;;0.40;0.40;;;18.70;98.40;;;;;;5091639;28;20672;-65
2022/11/09 05:32:53;;;;;;;0.40;0.40;;;18.70;98.50;;;;;;5093335;28;20279;-65
2022/11/09 05:35:41;;;;;;;0.40;0.40;;;18.70;98.50;;;;;;5092229;28;20199;-66
2022/11/09 05:38:29;;;;;;;0.40;0.40;;;18.70;98.50;;;;;;5092089;28;20275;-66
2022/11/09 05:41:17;;;;;;;0.40;0.40;;;18.70;98.50;;;;;;5092812;28;20266;-66
2022/11/09 05:44:06;;;;;;;0.40;0.40;;;18.70;98.50;;;;;;5092677;28;20204;-65
2022/11/09 05:46:54;;;;;;;0.40;0.40;;;18.70;98.50;;;;;;5093144;28;20295;-65
2022/11/09 05:49:42;;;;;;;0.40;0.40;;;18.70;98.50;;;;;;5092325;28;20206;-65
2022/11/09 05:52:30;;;;;;;0.40;0.40;;;18.80;98.60;;;;;;5093234;28;20283;-66
2022/11/09 05:55:19;;;;;;;0.40;0.40;;;18.70;98.40;;;;;;5092608;28;20757;-66
2022/11/09 05:58:07;;;;;;;0.40;0.40;;;18.70;98.50;;;;;;5077700;28;20680;-66
2022/11/09 06:00:58;;;;;;;0.40;0.40;;;18.70;98.50;;;;;;5071029;28;20672;-66
2022/11/09 06:03:46;;;;;;;0.40;0.40;;;18.70;98.50;;;;;;5070938;28;20246;-65
2022/11/09 06:06:34;;;;;;;0.40;0.40;;;18.70;98.30;;;;;;5072534;28;20205;-65
2022/11/09 06:09:22;;;;;;;0.40;0.40;;;18.70;98.50;;;;;;5091669;28;20699;-66
2022/11/09 06:12:10;;;;;;;0.40;0.40;;;18.70;98.60;;;;;;5092353;28;20279;-65
2022/11/09 06:14:58;;;;;;;0.40;0.40;;;18.70;98.60;;;;;;5091269;28;20289;-65
2022/11/09 06:17:52;;;;;;;0.40;0.40;;;18.70;98.60;;;;;;5092638;28;20304;-65
2022/11/09 06:20:40;;;;;;;0.40;0.40;;;18.80;98.70;;;;;;5091687;28;20270;-66
2022/11/09 06:23:29;;;;;;;0.40;0.40;;;18.80;98.70;;;;;;5091416;28;20669;-65
2022/11/09 06:26:17;;;;;;;0.40;0.40;;;18.80;98.70;;;;;;5091897;28;20204;-65
2022/11/09 06:29:05;;;;;;;0.40;0.40;;;18.70;98.60;;;;;;5091060;28;20830;-65
2022/11/09 06:31:53;;;;;;;0.40;0.40;;;18.70;98.70;;;;;;5091494;28;20281;-65
2022/11/09 06:34:43;;;;;;;0.40;0.40;;;18.70;98.70;;;;;;5091198;28;20287;-65
2022/11/09 06:37:31;;;;;;;0.40;0.40;;;18.70;98.60;;;;;;5091921;28;20219;-65
2022/11/09 06:40:19;;;;;;;0.40;0.40;;;18.70;98.70;;;;;;5090923;28;20735;-65
2022/11/09 06:43:07;;;;;;;0.40;0.40;;;18.70;98.70;;;;;;5091734;28;20275;-65
2022/11/09 06:45:56;;;;;;;0.40;0.40;;;18.70;98.70;;;;;;5091714;28;20215;-65
2022/11/09 06:48:44;;;;;;;0.40;0.40;;;18.70;98.80;;;;;;5090845;28;20302;-66
2022/11/09 06:51:37;;;;;;;0.40;0.40;;;18.70;98.80;;;;;;5091365;28;20275;-65
2022/11/09 06:54:26;;;;;;;0.40;0.40;;;18.70;98.80;;;;;;5090959;28;20281;-65
2022/11/09 06:57:14;;;;;;;0.40;0.40;;;18.70;98.80;;;;;;5091538;28;20215;-65
2022/11/09 07:00:04;;;;;;;0.40;0.40;;;18.70;98.90;;;;;;5090885;28;20234;-65
2022/11/09 07:02:53;;;;;;;0.40;0.40;;;18.70;98.90;;;;;;5092445;28;20208;-65
2022/11/09 07:05:41;;;;;;;0.40;0.40;;;18.70;98.90;;;;;;5091218;28;20250;-65
2022/11/09 07:08:30;;;;;;;0.40;0.40;;;18.70;99.00;;;;;;5071809;28;20311;-65
2022/11/09 07:11:19;;;;;;;0.40;0.40;;;18.70;99.00;;;;;;5070094;28;20287;-65
2022/11/09 07:14:07;;;;;;;0.40;0.40;;;18.70;99.00;;;;;;5072078;28;20203;-64
2022/11/09 07:16:55;;;;;;;0.40;0.40;;;18.70;99.20;;;;;;5055751;28;20221;-65
2022/11/09 07:19:43;;;;;;;0.40;0.40;;;18.70;99.20;;;;;;5054589;28;20666;-65
2022/11/09 07:22:33;;;;;;;0.40;0.40;;;18.70;99.30;;;;;;5054740;28;20201;-65
2022/11/09 07:25:23;;;;;;;0.40;0.40;;;18.80;99.90;;;;;;5055115;28;20284;-65
2022/11/09 07:28:12;;;;;;;0.40;0.40;;;18.70;99.30;;;;;;5073092;28;20213;-65
2022/11/09 07:31:00;;;;;;;0.40;0.40;;;18.70;99.40;;;;;;5075061;28;20330;-67
2022/11/09 07:33:49;;;;;;;0.40;0.40;;;18.70;99.40;;;;;;5074806;28;20275;-65
2022/11/09 07:36:37;;;;;;;0.40;0.40;;;18.70;99.20;;;;;;5075200;28;20242;-64
2022/11/09 07:39:25;;;;;;;0.40;0.40;;;18.70;99.50;;;;;;5072660;28;20804;-64
2022/11/09 07:42:15;;;;;;;0.40;0.40;;;18.80;99.60;;;;;;5074710;28;20739;-64
2022/11/09 07:45:04;;;;;;;0.40;0.40;;;18.80;99.60;;;;;;5074869;28;20327;-65
2022/11/09 07:47:55;;;;;;;0.40;0.40;;;18.80;99.60;;;;;;5074889;28;20220;-65
2022/11/09 07:50:43;;;;;;;0.40;0.40;;;18.80;99.60;;;;;;5074623;28;20279;-65
2022/11/09 07:53:31;;;;;;;0.40;0.40;;;18.80;99.70;;;;;;5071509;28;20676;-65
2022/11/09 07:56:20;;;;;;;0.40;0.40;;;18.80;99.70;;;;;;5075266;28;20251;-65
2022/11/09 07:59:09;;;;;;;0.40;0.40;;;18.80;99.70;;;;;;5074512;28;20319;-64
2022/11/09 08:01:57;;;;;;;0.40;0.40;;;18.80;99.70;;;;;;5054149;28;20278;-65
2022/11/09 08:04:46;;;;;;;0.40;0.40;;;18.80;99.70;;;;;;5053450;28;20208;-64
2022/11/09 08:07:34;;;;;;;0.40;0.40;;;18.80;99.80;;;;;;5053770;28;20226;-65
2022/11/09 08:10:22;;;;;;;0.40;0.40;;;18.80;99.80;;;;;;5053688;28;20697;-65
2022/11/09 08:13:12;;;;;;;0.40;0.40;;;18.80;99.80;;;;;;5069712;28;20282;-65
2022/11/09 08:16:02;;;;;;;0.40;0.40;;;18.80;99.80;;;;;;5074343;28;20204;-65
2022/11/09 08:18:51;;;;;;;0.40;0.40;;;18.90;99.90;;;;;;5073718;28;20350;-65
2022/11/09 08:21:39;;;;;;;0.40;0.40;;;18.90;99.90;;;;;;5073946;28;20318;-65
2022/11/09 08:24:29;;;;;;;0.40;0.40;;;18.90;99.90;;;;;;5074177;28;20275;-65
2022/11/09 08:27:17;;;;;;;0.40;0.40;;;18.90;99.90;;;;;;5074792;28;20696;-65
2022/11/09 08:30:06;;;;;;;0.40;0.40;;;18.90;99.90;;;;;;5073272;28;20254;-65
2022/11/09 08:32:55;;;;;;;0.40;0.40;;;18.90;99.90;;;;;;5073915;28;20639;-66
2022/11/09 08:35:44;;;;;;;0.40;0.40;;;18.90;99.90;;;;;;5073326;28;20212;-65
2022/11/09 08:38:39;;;;;;;0.40;0.40;;;18.90;99.90;;;;;;5073301;28;20226;-65
2022/11/09 08:41:29;;;;;;;0.30;0.30;;;18.90;99.90;;;;;;5073391;28;20334;-65
2022/11/09 08:44:17;;;;;;;1.02;1.02;;;18.90;99.90;;;;;;5072835;28;20691;-65
2022/11/09 08:47:05;;;;;;;0.40;0.40;;;18.90;99.90;;;;;;5072258;28;20313;-66
2022/11/09 08:49:55;;;;;;;0.40;0.40;;;18.90;99.90;;;;;;5080629;28;20223;-65
2022/11/09 08:52:43;;;;;;;0.40;0.40;;;18.90;99.90;;;;;;5073666;28;20211;-65
2022/11/09 08:55:31;;;;;;;0.40;0.40;;;18.90;99.90;;;;;;5070819;28;20331;-66
2022/11/09 08:58:20;;;;;;;0.40;0.40;;;19.00;99.90;;;;;;5073353;28;20225;-65
2022/11/09 09:01:09;;;;;;;0.40;0.40;;;19.00;99.90;;;;;;5073631;28;20703;-65
2022/11/09 09:04:04;;;;;;;0.40;0.40;;;19.00;99.90;;;;;;5072442;28;20203;-66
2022/11/09 09:06:53;;;;;;;0.40;0.40;;;19.00;99.90;;;;;;5071290;28;20292;-65
2022/11/09 09:09:41;;;;;;;0.40;0.40;;;19.00;99.90;;;;;;5068003;28;20220;-66
2022/11/09 09:12:30;;;;;;;0.40;0.40;;;19.00;99.90;;;;;;5069740;28;20320;-65
2022/11/09 09:15:18;;;;;;;0.40;0.40;;;19.00;99.90;;;;;;5062416;28;20204;-65
2022/11/09 09:18:06;;;;;;;0.40;0.40;;;19.10;99.90;;;;;;5070361;28;20224;-66
2022/11/09 09:20:54;;;;;;;0.40;0.40;;;19.10;99.90;;;;;;5066485;28;20287;-65
2022/11/09 09:23:44;;;;;;;0.40;0.40;;;19.10;99.90;;;;;;5073468;28;20232;-65
2022/11/09 09:26:32;;;;;;;0.40;0.40;;;19.20;99.90;;;;;;5072581;28;20222;-66
2022/11/09 09:29:20;;;;;;;0.40;0.40;;;19.20;99.90;;;;;;5071527;28;20699;-67
2022/11/09 09:32:08;;;;;;;0.40;0.40;;;19.20;99.90;;;;;;5071853;28;20685;-67
2022/11/09 09:34:56;;;;;;;0.40;0.40;;;19.20;99.90;;;;;;5072784;28;20211;-67
2022/11/09 09:37:44;;;;;;;0.40;0.40;;;19.20;99.90;;;;;;5075419;28;20586;-66
2022/11/09 09:40:40;;;;;;;0.40;0.40;;;19.20;99.90;;;;;;5059820;28;20290;-66
2022/11/09 09:43:31;;;;;;;0.40;0.40;;;19.20;99.90;;;;;;5064623;28;20277;-66
2022/11/09 09:46:24;;;;;;;0.40;0.40;;;19.20;99.90;;;;;;5057118;28;20201;-66
2022/11/09 09:49:15;;;;;;;0.40;0.40;;;19.20;99.90;;;;;;5052087;28;20222;-65
2022/11/09 09:52:10;;;;;;;0.60;0.60;;;19.20;99.90;;;;;;5065535;28;20338;-65
2022/11/09 09:55:05;;;;;;;0.40;0.40;;;19.20;99.90;;;;;;5071220;28;20263;-65
2022/11/09 09:57:56;;;;;;;0.40;0.40;;;19.20;99.90;;;;;;5067406;28;20303;-66
2022/11/09 10:00:45;;;;;;;0.40;0.40;;;19.20;99.90;;;;;;5071133;28;20229;-65
2022/11/09 10:03:33;;;;;;;0.40;0.40;;;19.30;99.90;;;;;;5069106;28;20254;-65
2022/11/09 10:06:39;;;;;;;0.40;0.40;;;19.30;99.90;;;;;;5071738;28;20266;-66
2022/11/09 10:09:41;;;;;;;0.40;0.40;;;19.30;99.90;;;;;;5064633;28;20868;-67
2022/11/09 10:12:40;;;;;;;0.40;0.40;;;19.30;99.90;;;;;;5073538;28;20552;-66
2022/11/09 10:15:36;;;;;;;0.40;0.40;;;19.30;99.90;;;;;;5072308;28;20331;-66
2022/11/09 10:18:36;;;;;;;0.40;0.40;;;19.30;99.90;;;;;;5057348;28;20281;-68
2022/11/09 10:21:34;;;;;;;0.40;0.40;;;19.30;99.90;;;;;;5062074;28;20346;-67
2022/11/09 10:24:33;;;;;;;0.40;0.40;;;19.30;99.90;;;;;;5067312;28;20263;-67
2022/11/09 10:27:27;;;;;;;0.40;0.40;;;19.40;99.90;;;;;;5069080;28;20260;-66
2022/11/09 10:30:18;;;;;;;0.40;0.40;;;19.40;99.90;;;;;;5069788;28;20255;-65
2022/11/09 10:33:15;;;;;;;0.40;0.40;;;19.40;99.90;;;;;;5086881;28;20200;-66
2022/11/09 10:36:11;;;;;;;0.40;0.40;;;19.50;99.90;;;;;;5067241;28;20224;-67
2022/11/09 10:39:01;;;;;;;0.40;0.40;;;19.50;99.90;;;;;;5068179;28;20255;-66
2022/11/09 10:41:49;;;;;;;0.30;0.30;;;19.50;99.90;;;;;;5068617;28;20254;-67
2022/11/09 10:44:37;;;;;;;0.40;0.40;;;19.50;99.90;;;;;;5062253;28;20208;-66
2022/11/09 10:47:26;;;;;;;0.40;0.40;;;19.50;99.90;;;;;;5066755;28;20217;-67
2022/11/09 10:50:27;;;;;;;0.40;0.40;;;19.60;99.90;;;;;;5079295;28;20706;-67
2022/11/09 10:53:17;;;;;;;0.40;0.40;;;19.60;99.90;;;;;;5075143;28;20335;-67
2022/11/09 10:56:13;;;;;;;0.40;0.40;;;19.60;99.90;;;;;;5074368;28;20209;-67
2022/11/09 10:59:36;;;;;;;0.40;0.40;;;19.60;99.90;;;;;;5075612;28;20204;-66
2022/11/09 11:02:43;;;;;;;0.40;0.40;;;19.60;99.90;;;;;;5072756;28;20208;-66
2022/11/09 11:05:34;;;;;;;0.88;0.88;;;19.80;99.90;;;;;;5059999;28;20263;-66
2022/11/09 11:08:29;;;;;;;0.40;0.40;;;20.10;99.90;;;;;;5054360;28;20582;-64
2022/11/09 11:11:21;;;;;;;0.40;0.40;;;20.40;99.90;;;;;;5053852;28;20231;-65
2022/11/09 11:14:30;;;;;;;0.40;0.40;;;20.60;99.90;;;;;;5070048;28;20200;-67
2022/11/09 11:17:23;;;;;;;0.40;0.40;;;20.80;99.90;;;;;;5070568;28;20374;-66
2022/11/09 11:20:28;;;;;;;0.30;0.30;;;21.00;99.90;;;;;;5070141;28;20205;-66
2022/11/09 11:23:19;;;;;;;0.40;0.40;;;21.20;99.90;;;;;;5072931;28;20200;-66
2022/11/09 11:26:30;;;;;;;0.40;0.40;;;21.30;99.90;;;;;;5072890;28;20715;-65
2022/11/09 11:29:44;;;;;;;0.40;0.40;;;21.50;99.80;;;;;;5092171;28;20287;-65
2022/11/09 11:32:32;;;;;;;0.40;0.40;;;21.60;99.60;;;;;;5090942;28;20208;-65
2022/11/09 11:35:27;;;;;;;0.40;0.40;;;21.80;99.30;;;;;;5064827;28;20232;-66
2022/11/09 11:38:25;;;;;;;0.40;0.40;;;22.00;99.10;;;;;;5072791;28;20311;-66
2022/11/09 11:41:35;;;;;;;0.40;0.40;;;22.20;98.90;;;;;;5073149;28;20197;-66
2022/11/09 11:44:34;;;;;;;0.40;0.40;;;22.40;98.70;;;;;;5069729;28;20637;-66
2022/11/09 11:47:28;;;;;;;0.40;0.40;;;22.60;98.50;;;;;;5072491;28;20224;-67
2022/11/09 11:50:31;;;;;;;0.40;0.40;;;22.70;98.20;;;;;;5072360;28;20224;-66
2022/11/09 11:53:34;;;;;;;0.40;0.40;;;22.90;98.00;;;;;;5072615;28;20232;-66
2022/11/09 11:56:32;;;;;;;0.40;0.40;;;23.10;97.50;;;;;;5073202;28;20200;-65
2022/11/09 11:59:44;;;;;;;0.40;0.40;;;23.10;97.80;;;;;;5084293;28;20746;-66
2022/11/09 12:02:57;;;;;;;1.15;1.15;;;23.20;97.70;;;;;;5093489;28;20204;-67
2022/11/09 12:06:13;;;;;;;0.40;0.40;;;23.20;97.50;;;;;;5092581;28;20282;-66
2022/11/09 12:09:26;;;;;;;0.40;0.40;;;23.20;97.60;;;;;;5080019;28;20235;-66
2022/11/09 12:12:26;;;;;;;0.40;0.40;;;23.20;97.50;;;;;;5071505;28;20303;-67
2022/11/09 12:15:25;;;;;;;0.40;0.40;;;23.30;97.50;;;;;;5072809;28;20275;-66
2022/11/09 12:18:28;;;;;;;0.40;0.40;;;23.30;97.30;;;;;;5072633;28;20689;-65
2022/11/09 12:21:17;;;;;;;0.40;0.40;;;23.30;97.30;;;;;;5071448;28;20555;-65
2022/11/09 12:24:17;;;;;;;0.40;0.40;;;23.30;97.40;;;;;;5089195;28;20203;-65
2022/11/09 12:27:40;;;;;;;0.40;0.40;;;23.30;97.30;;;;;;5085538;28;20248;-65
2022/11/09 12:30:39;;;;;;;0.40;0.40;;;23.30;97.20;;;;;;5064149;28;20315;-66
2022/11/09 12:33:42;;;;;;;0.40;0.40;;;23.20;97.20;;;;;;5072291;28;20278;-65
2022/11/09 12:36:36;;;;;;;0.40;0.40;;;24.40;97.60;;;;;;5072014;28;20200;-65
2022/11/09 12:39:29;;;;;;;0.40;0.40;;;23.10;97.20;;;;;;5071360;28;20275;-65
2022/11/09 12:42:23;;;;;;;0.40;0.40;;;23.10;97.30;;;;;;5071103;28;20293;-65
2022/11/09 12:45:21;;;;;;;0.40;0.40;;;23.10;97.30;;;;;;5071531;28;20208;-65
2022/11/09 12:48:24;;;;;;;0.40;0.40;;;22.90;97.40;;;;;;5070967;28;20762;-66
2022/11/09 12:51:12;;;;;;;0.40;0.40;;;22.80;97.40;;;;;;5068137;28;20227;-69
2022/11/09 12:54:08;;;;;;;0.40;0.40;;;22.70;97.60;;;;;;5090990;28;20257;-66
2022/11/09 12:56:59;;;;;;;0.40;0.40;;;22.70;97.70;;;;;;5080633;28;20225;-68
2022/11/09 12:59:50;;;;;;;0.40;0.40;;;22.70;97.70;;;;;;5078623;28;20664;-68
2022/11/09 13:02:42;;;;;;;0.40;0.40;;;22.70;97.60;;;;;;5074838;28;20287;-68
2022/11/09 13:05:33;;;;;;;0.40;0.40;;;22.70;97.60;;;;;;5069363;28;20292;-68
2022/11/09 13:08:28;;;;;;;0.40;0.40;;;22.70;97.60;;;;;;5070633;28;20704;-67
2022/11/09 13:11:22;;;;;;;0.40;0.40;;;22.80;97.70;;;;;;5051194;28;20209;-64
2022/11/09 13:14:36;;;;;;;0.40;0.40;;;22.90;97.60;;;;;;5050582;28;20250;-68
2022/11/09 13:18:01;;;;;;;0.40;0.40;;;23.00;97.50;;;;;;5050783;28;20316;-68
2022/11/09 13:20:51;;;;;;;0.40;0.40;;;23.00;97.40;;;;;;5061374;28;20214;-68
2022/11/09 13:23:44;;;;;;;0.40;0.40;;;23.10;97.30;;;;;;5065423;28;20687;-67
2022/11/09 13:26:57;;;;;;;0.40;0.40;;;23.10;97.20;;;;;;5071140;28;20596;-68
2022/11/09 13:29:48;;;;;;;0.40;0.40;;;23.20;97.20;;;;;;5085559;28;20207;-65
2022/11/09 13:33:31;;;;;;;0.40;0.40;;;23.20;97.10;;;;;;5087730;28;20231;-68
2022/11/09 13:36:21;;;;;;;0.40;0.40;;;23.10;97.30;;;;;;5091347;28;20215;-67
2022/11/09 13:39:29;;;;;;;0.40;0.40;;;23.10;97.20;;;;;;5076505;28;20444;-63
2022/11/09 13:42:28;;;;;;;0.40;0.40;;;23.20;97.30;;;;;;5070111;28;20192;-64
2022/11/09 13:45:26;;;;;;;0.40;0.40;;;23.20;97.30;;;;;;5067614;28;20205;-64
2022/11/09 13:48:31;;;;;;;0.40;0.40;;;23.10;97.30;;;;;;5070801;28;20226;-67
2022/11/09 13:51:22;;;;;;;0.40;0.40;;;23.20;97.30;;;;;;5070164;28;20307;-63
2022/11/09 13:54:29;;;;;;;0.40;0.40;;;23.10;97.30;;;;;;5069423;28;20575;-68
2022/11/09 13:57:17;;;;;;;0.40;0.40;;;23.00;97.50;;;;;;5070200;28;20289;-68
2022/11/09 14:00:17;;;;;;;0.40;0.40;;;22.90;97.60;;;;;;5070794;28;20200;-66
2022/11/09 14:03:18;;;;;;;2.55;1.33;;;22.90;97.80;;;;;;5070960;28;20669;-68
2022/11/09 14:06:10;;;;;;;0.40;0.40;;;22.80;97.80;;;;;;5081072;28;20259;-68
2022/11/09 14:09:00;;;;;;;0.40;0.40;;;22.80;97.80;;;;;;5069790;28;20314;-65
2022/11/09 14:12:08;;;;;;;0.40;0.40;;;22.80;97.90;;;;;;5068360;28;20339;-65
2022/11/09 14:15:25;;;;;;;0.40;0.40;;;22.70;97.80;;;;;;5070561;28;20242;-65
2022/11/09 14:18:23;;;;;;;0.40;0.40;;;22.80;97.80;;;;;;5068168;28;20595;-67
2022/11/09 14:21:25;;;;;;;4.65;4.45;;;22.80;97.90;;;;;;5069336;28;20283;-67
2022/11/09 14:24:18;;;;;;;0.40;0.40;;;22.80;97.80;;;;;;5070792;28;20306;-66
2022/11/09 14:27:15;;;;;;;0.40;0.40;;;22.90;97.80;;;;;;5053508;28;20292;-66
2022/11/09 14:30:16;;;;;;;0.40;0.40;;;22.90;97.80;;;;;;5063257;28;20245;-66
2022/11/09 14:33:20;;;;;;;0.40;0.40;;;23.00;97.60;;;;;;5073638;28;20293;-66
2022/11/09 14:36:12;;;;;;;0.40;0.40;;;22.90;97.40;;;;;;5073904;28;20736;-66
2022/11/09 14:39:02;;;;;;;0.40;0.40;;;23.00;97.40;;;;;;5072866;28;20290;-66
2022/11/09 14:41:52;;;;;;;0.40;0.40;;;23.00;97.40;;;;;;5073458;28;20281;-66
2022/11/09 14:44:43;;;;;;;0.40;0.40;;;23.00;97.30;;;;;;5073621;28;20205;-66
2022/11/09 14:47:34;;;;;;;0.40;0.40;;;23.10;97.20;;;;;;5074038;28;20303;-67
2022/11/09 14:50:24;;;;;;;0.40;0.40;;;23.20;97.20;;;;;;5072349;28;20205;-67
2022/11/09 14:53:16;;;;;;;0.40;0.40;;;23.10;97.20;;;;;;5074187;28;20300;-67
2022/11/09 14:56:06;;;;;;;0.40;0.40;;;23.20;97.30;;;;;;5073464;28;20211;-66